createdAt,value
2023-01-08T00:02:17.941Z,100502.63
2023-01-08T00:04:44.817Z,100497.72
2023-01-08T00:07:11.448Z,100489.53
2023-01-08T00:09:38.336Z,100484.41
2023-01-08T00:12:04.947Z,100474.94
2023-01-08T00:14:31.631Z,100480.56
2023-01-08T00:16:58.651Z,100484.53
2023-01-08T00:19:25.513Z,100480.47
2023-01-08T00:21:52.208Z,100485.25
2023-01-08T00:24:18.744Z,100484.09
2023-01-08T00:26:45.975Z,100474.63
2023-01-08T00:29:12.393Z,100474.88
2023-01-08T00:31:39.383Z,100478.06
2023-01-08T00:34:05.989Z,100471.53
2023-01-08T00:36:32.625Z,100466.16
2023-01-08T00:38:59.052Z,100464.75
2023-01-08T00:41:25.509Z,100474.13
2023-01-08T00:43:52.154Z,100471.91
2023-01-08T00:46:19.284Z,100464.91
2023-01-08T00:48:46.781Z,100464.31
2023-01-08T00:51:13.367Z,100452.75
2023-01-08T00:53:39.977Z,100455.06
2023-01-08T00:56:07.133Z,100443.75
2023-01-08T00:58:33.834Z,100447.75
2023-01-08T01:01:00.433Z,100440.97
2023-01-08T01:03:27.176Z,100437.44
2023-01-08T01:05:53.687Z,100430.44
2023-01-08T01:08:20.079Z,100429.06
2023-01-08T01:10:46.547Z,100427.66
2023-01-08T01:13:13.430Z,100427.91
2023-01-08T01:15:39.919Z,100424.59
2023-01-08T01:18:07.233Z,100422.16
2023-01-08T01:20:33.673Z,100419.97
2023-01-08T01:23:00.339Z,100420.19
2023-01-08T01:25:27.350Z,100412.38
2023-01-08T01:27:54.250Z,100407.22
2023-01-08T01:30:21.030Z,100408.53
2023-01-08T01:32:47.727Z,100405.25
2023-01-08T01:35:14.113Z,100412.50
2023-01-08T01:37:41.073Z,100403.84
2023-01-08T01:40:08.796Z,100401.41
2023-01-08T01:42:36.126Z,100397.91
2023-01-08T01:45:03.009Z,100391.13
2023-01-08T01:47:29.677Z,100392.41
2023-01-08T01:49:56.061Z,100392.41
2023-01-08T01:52:22.728Z,100382.94
2023-01-08T01:54:49.178Z,100366.81
2023-01-08T01:57:15.820Z,100363.28
2023-01-08T01:59:42.351Z,100370.19
2023-01-08T02:02:08.988Z,100368.56
2023-01-08T02:04:36.217Z,100365.56
2023-01-08T02:07:02.832Z,100364.13
2023-01-08T02:09:30.826Z,100366.81
2023-01-08T02:11:57.506Z,100357.13
2023-01-08T02:14:24.414Z,100344.75
2023-01-08T02:16:50.853Z,100330.47
2023-01-08T02:19:17.870Z,100347.66
2023-01-08T02:21:44.612Z,100347.91
2023-01-08T02:24:11.200Z,100332.28
2023-01-08T02:26:37.947Z,100337.88
2023-01-08T02:29:04.658Z,100337.88
2023-01-08T02:31:31.205Z,100334.38
2023-01-08T02:33:57.852Z,100328.16
2023-01-08T02:36:24.381Z,100324.91
2023-01-08T02:38:50.921Z,100321.41
2023-01-08T02:41:17.194Z,100317.69
2023-01-08T02:43:44.150Z,100313.59
2023-01-08T02:46:10.530Z,100317.81
2023-01-08T02:48:36.969Z,100314.84
2023-01-08T02:51:03.482Z,100305.16
2023-01-08T02:53:30.177Z,100297.09
2023-01-08T02:55:56.778Z,100287.41
2023-01-08T02:58:23.491Z,100281.22
2023-01-08T03:00:50.150Z,100287.66
2023-01-08T03:03:16.960Z,100293.03
2023-01-08T03:05:43.319Z,100292.47
2023-01-08T03:08:09.688Z,100288.94
2023-01-08T03:10:36.996Z,100283.56
2023-01-08T03:13:03.484Z,100278.66
2023-01-08T03:15:30.383Z,100282.41
2023-01-08T03:17:57.999Z,100286.72
2023-01-08T03:20:25.229Z,100284.03
2023-01-08T03:22:52.203Z,100288.38
2023-01-08T03:25:19.234Z,100280.06
2023-01-08T03:27:46.225Z,100274.69
2023-01-08T03:30:12.564Z,100278.44
2023-01-08T03:32:39.388Z,100274.94
2023-01-08T03:35:05.802Z,100263.59
2023-01-08T03:37:32.649Z,100267.91
2023-01-08T03:39:59.277Z,100259.84
2023-01-08T03:42:26.105Z,100259.84
2023-01-08T03:44:52.513Z,100258.00
2023-01-08T03:47:18.836Z,100245.63
2023-01-08T03:49:45.184Z,100257.16
2023-01-08T03:52:11.573Z,100260.09
2023-01-08T03:54:38.032Z,100250.41
2023-01-08T03:57:04.679Z,100246.94
2023-01-08T03:59:31.148Z,100256.28
2023-01-08T04:01:57.784Z,100257.31
2023-01-08T04:04:25.945Z,100253.00
2023-01-08T04:06:53.116Z,100254.06
2023-01-08T04:09:20.999Z,100254.06
2023-01-08T04:11:48.387Z,100253.25
2023-01-08T04:14:16.808Z,100255.38
2023-01-08T04:16:43.705Z,100267.97
2023-01-08T04:19:12.095Z,100243.78
2023-01-08T04:21:39.733Z,100246.72
2023-01-08T04:24:07.264Z,100230.59
2023-01-08T04:26:34.477Z,100230.03
2023-01-08T04:29:02.234Z,100236.47
2023-01-08T04:31:29.875Z,100228.88
2023-01-08T04:33:57.002Z,100229.94
2023-01-08T04:36:23.738Z,100213.81
2023-01-08T04:38:50.442Z,100211.38
2023-01-08T04:41:17.043Z,100215.66
2023-01-08T04:43:43.745Z,100207.28
2023-01-08T04:46:10.271Z,100219.88
2023-01-08T04:48:36.913Z,100218.03
2023-01-08T04:51:04.085Z,100222.56
2023-01-08T04:53:30.450Z,100207.75
2023-01-08T04:55:57.410Z,100210.69
2023-01-08T04:58:24.167Z,100199.09
2023-01-08T05:00:50.583Z,100201.22
2023-01-08T05:03:17.460Z,100206.59
2023-01-08T05:05:44.580Z,100199.84
2023-01-08T05:08:11.182Z,100192.59
2023-01-08T05:10:37.605Z,100189.09
2023-01-08T05:13:04.616Z,100192.00
2023-01-08T05:15:31.044Z,100192.00
2023-01-08T05:17:57.777Z,100199.84
2023-01-08T05:20:25.235Z,100203.81
2023-01-08T05:22:52.197Z,100203.00
2023-01-08T05:25:18.823Z,100204.88
2023-01-08T05:27:45.772Z,100200.53
2023-01-08T05:30:12.076Z,100199.75
2023-01-08T05:32:38.931Z,100190.84
2023-01-08T05:35:06.216Z,100196.47
2023-01-08T05:37:32.577Z,100192.97
2023-01-08T05:39:59.678Z,100192.38
2023-01-08T05:42:26.201Z,100171.97
2023-01-08T05:44:52.575Z,100175.72
2023-01-08T05:47:19.353Z,100164.97
2023-01-08T05:49:45.919Z,100164.16
2023-01-08T05:52:12.737Z,100171.63
2023-01-08T05:54:39.668Z,100181.56
2023-01-08T05:57:06.711Z,100176.19
2023-01-08T05:59:33.455Z,100161.94
2023-01-08T06:02:00.225Z,100173.50
2023-01-08T06:04:26.846Z,100171.03
2023-01-08T06:06:53.596Z,100165.66
2023-01-08T06:09:19.946Z,100161.59
2023-01-08T06:11:46.904Z,100151.69
2023-01-08T06:14:13.506Z,100152.72
2023-01-08T06:16:39.861Z,100161.81
2023-01-08T06:19:06.282Z,100149.22
2023-01-08T06:21:32.840Z,100148.63
2023-01-08T06:23:59.166Z,100152.38
2023-01-08T06:26:25.574Z,100155.06
2023-01-08T06:28:52.000Z,100166.88
2023-01-08T06:31:18.458Z,100156.94
2023-01-08T06:33:45.267Z,100147.22
2023-01-08T06:36:11.785Z,100154.25
2023-01-08T06:38:38.568Z,100150.75
2023-01-08T06:41:05.196Z,100150.13
2023-01-08T06:43:31.738Z,100150.13
2023-01-08T06:45:58.293Z,100150.41
2023-01-08T06:48:25.402Z,100141.53
2023-01-08T06:50:52.441Z,100154.94
2023-01-08T06:53:18.893Z,100147.94
2023-01-08T06:55:45.434Z,100155.41
2023-01-08T06:58:11.786Z,100163.47
2023-01-08T07:00:38.120Z,100152.72
2023-01-08T07:03:04.811Z,100149.25
2023-01-08T07:05:31.637Z,100157.28
2023-01-08T07:07:58.339Z,100154.84
2023-01-08T07:10:25.127Z,100154.84
2023-01-08T07:12:51.583Z,100163.94
2023-01-08T07:15:18.296Z,100158.56
2023-01-08T07:17:44.807Z,100158.56
2023-01-08T07:20:11.166Z,100154.47
2023-01-08T07:22:37.563Z,100153.69
2023-01-08T07:25:03.980Z,100157.16
2023-01-08T07:27:30.463Z,100156.38
2023-01-08T07:29:57.001Z,100148.31
2023-01-08T07:32:23.497Z,100153.94
2023-01-08T07:34:50.156Z,100146.69
2023-01-08T07:37:16.655Z,100136.44
2023-01-08T07:39:43.196Z,100122.78
2023-01-08T07:42:10.081Z,100120.31
2023-01-08T07:44:36.721Z,100118.69
2023-01-08T07:47:03.868Z,100114.97
2023-01-08T07:49:30.454Z,100133.97
2023-01-08T07:51:57.535Z,100133.16
2023-01-08T07:54:24.506Z,100124.53
2023-01-08T07:56:51.361Z,100143.31
2023-01-08T07:59:17.977Z,100136.34
2023-01-08T08:01:44.652Z,100143.31
2023-01-08T08:04:11.278Z,100144.63
2023-01-08T08:06:37.820Z,100151.84
2023-01-08T08:09:04.622Z,100151.03
2023-01-08T08:11:31.062Z,100153.97
2023-01-08T08:13:58.177Z,100150.44
2023-01-08T08:16:24.779Z,100148.59
2023-01-08T08:18:51.265Z,100144.25
2023-01-08T08:21:18.094Z,100146.94
2023-01-08T08:23:44.745Z,100137.03
2023-01-08T08:26:11.561Z,100139.94
2023-01-08T08:28:38.314Z,100146.59
2023-01-08T08:31:04.651Z,100135.06
2023-01-08T08:33:31.723Z,100143.13
2023-01-08T08:35:58.291Z,100130.72
2023-01-08T08:38:24.669Z,100125.59
2023-01-08T08:40:51.818Z,100119.44
2023-01-08T08:43:18.532Z,100123.97
2023-01-08T08:45:46.241Z,100133.91
2023-01-08T08:48:13.399Z,100130.63
2023-01-08T08:50:39.803Z,100127.94
2023-01-08T08:53:06.322Z,100127.94
2023-01-08T08:55:32.848Z,100124.69
2023-01-08T08:57:59.688Z,100128.09
2023-01-08T09:00:26.467Z,100122.59
2023-01-08T09:02:53.419Z,100129.63
2023-01-08T09:05:19.959Z,100128.69
2023-01-08T09:07:46.720Z,100113.44
2023-01-08T09:10:13.066Z,100109.31
2023-01-08T09:12:39.521Z,100115.25
2023-01-08T09:15:06.573Z,100113.94
2023-01-08T09:17:33.331Z,100115.03
2023-01-08T09:20:00.313Z,100120.75
2023-01-08T09:22:27.111Z,100113.44
2023-01-08T09:24:53.456Z,100119.59
2023-01-08T09:27:19.978Z,100111.22
2023-01-08T09:29:46.969Z,100097.75
2023-01-08T09:32:13.645Z,100113.19
2023-01-08T09:34:39.896Z,100108.81
2023-01-08T09:37:06.387Z,100108.16
2023-01-08T09:39:33.653Z,100105.31
2023-01-08T09:42:00.311Z,100100.84
2023-01-08T09:44:26.902Z,100102.88
2023-01-08T09:46:53.839Z,100111.91
2023-01-08T09:49:20.505Z,100107.34
2023-01-08T09:51:48.467Z,100096.75
2023-01-08T09:54:15.324Z,100083.47
2023-01-08T09:56:41.670Z,100072.81
2023-01-08T09:59:08.076Z,100081.13
2023-01-08T10:01:34.657Z,100082.09
2023-01-08T10:04:01.440Z,100094.78
2023-01-08T10:06:28.303Z,100103.53
2023-01-08T10:08:55.559Z,100096.25
2023-01-08T10:11:22.710Z,100086.63
2023-01-08T10:13:49.116Z,100093.19
2023-01-08T10:16:15.891Z,100107.84
2023-01-08T10:18:42.371Z,100110.69
2023-01-08T10:21:09.156Z,100104.66
2023-01-08T10:23:35.774Z,100105.31
2023-01-08T10:26:02.484Z,100100.88
2023-01-08T10:28:28.989Z,100101.97
2023-01-08T10:30:55.323Z,100100.78
2023-01-08T10:33:22.218Z,100081.00
2023-01-08T10:35:48.657Z,100089.25
2023-01-08T10:38:15.378Z,100089.88
2023-01-08T10:40:42.003Z,100088.06
2023-01-08T10:43:08.306Z,100091.88
2023-01-08T10:45:34.907Z,100077.34
2023-01-08T10:48:01.557Z,100075.25
2023-01-08T10:50:28.007Z,100075.00
2023-01-08T10:52:54.429Z,100064.28
2023-01-08T10:55:21.095Z,100063.53
2023-01-08T10:57:47.807Z,100063.00
2023-01-08T11:00:14.358Z,100054.66
2023-01-08T11:02:40.711Z,100058.97
2023-01-08T11:05:07.590Z,100060.63
2023-01-08T11:07:34.134Z,100066.56
2023-01-08T11:10:00.792Z,100073.03
2023-01-08T11:12:27.155Z,100068.72
2023-01-08T11:14:53.604Z,100066.75
2023-01-08T11:17:19.974Z,100064.91
2023-01-08T11:19:46.571Z,100056.00
2023-01-08T11:22:13.298Z,100046.56
2023-01-08T11:24:39.892Z,100038.25
2023-01-08T11:27:06.320Z,100038.53
2023-01-08T11:29:33.000Z,100039.91
2023-01-08T11:31:59.528Z,100029.19
2023-01-08T11:34:26.279Z,100030.28
2023-01-08T11:36:53.095Z,100024.63
2023-01-08T11:39:19.483Z,100014.16
2023-01-08T11:41:46.230Z,100014.69
2023-01-08T11:44:12.618Z,100005.84
2023-01-08T11:46:39.537Z,100009.91
2023-01-08T11:49:05.880Z,100004.47
2023-01-08T11:51:32.610Z,100006.06
2023-01-08T11:53:59.107Z,100012.28
2023-01-08T11:56:25.490Z,99999.59
2023-01-08T11:58:51.935Z,99997.19
2023-01-08T12:01:18.550Z,99992.63
2023-01-08T12:03:45.065Z,99994.81
2023-01-08T12:06:11.428Z,100010.78
2023-01-08T12:08:37.872Z,100006.22
2023-01-08T12:11:04.891Z,100001.91
2023-01-08T12:13:31.348Z,99990.56
2023-01-08T12:15:57.969Z,99991.69
2023-01-08T12:18:24.337Z,99979.81
2023-01-08T12:20:50.751Z,99980.38
2023-01-08T12:23:17.682Z,99985.25
2023-01-08T12:25:44.250Z,99976.06
2023-01-08T12:28:10.902Z,99984.72
2023-01-08T12:30:37.590Z,99978.50
2023-01-08T12:33:04.110Z,99965.28
2023-01-08T12:35:30.688Z,99960.19
2023-01-08T12:37:57.230Z,99960.47
2023-01-08T12:40:24.042Z,99967.78
2023-01-08T12:43:00.310Z,99969.66
2023-01-08T12:45:27.482Z,99959.13
2023-01-08T12:47:54.235Z,99958.84
2023-01-08T12:50:20.755Z,99942.41
2023-01-08T12:52:47.715Z,99949.72
2023-01-08T12:55:14.206Z,99953.19
2023-01-08T12:57:40.720Z,99950.78
2023-01-08T13:00:07.232Z,99958.63
2023-01-08T13:02:34.250Z,99954.63
2023-01-08T13:05:00.644Z,99951.91
2023-01-08T13:07:27.678Z,99949.75
2023-01-08T13:09:54.095Z,99950.56
2023-01-08T13:12:21.846Z,99949.22
2023-01-08T13:14:49.846Z,99941.94
2023-01-08T13:17:16.636Z,99931.41
2023-01-08T13:19:43.472Z,99931.94
2023-01-08T13:22:10.137Z,99933.56
2023-01-08T13:24:39.152Z,99937.06
2023-01-08T13:27:05.868Z,99926.81
2023-01-08T13:29:32.785Z,99926.53
2023-01-08T13:31:59.529Z,99938.69
2023-01-08T13:34:25.992Z,99932.22
2023-01-08T13:36:53.413Z,99932.75
2023-01-08T13:42:07.560Z,99947.06
2023-01-08T13:44:34.189Z,99941.41
2023-01-08T13:47:00.754Z,99926.28
2023-01-08T13:49:27.777Z,99934.91
2023-01-08T13:51:54.335Z,99934.38
2023-01-08T13:54:21.148Z,99931.41
2023-01-08T13:56:48.708Z,99934.63
2023-01-08T13:59:15.534Z,99917.31
2023-01-08T14:01:43.552Z,99917.03
2023-01-08T14:04:10.738Z,99927.31
2023-01-08T14:06:37.363Z,99917.34
2023-01-08T14:09:03.923Z,99914.09
2023-01-08T14:11:30.945Z,99919.25
2023-01-08T14:14:01.817Z,99915.72
2023-01-08T14:16:28.803Z,99907.63
2023-01-08T14:18:55.461Z,99911.41
2023-01-08T14:21:22.479Z,99914.94
2023-01-08T14:23:49.411Z,99907.63
2023-01-08T14:26:16.274Z,99903.81
2023-01-08T14:28:42.775Z,99908.69
2023-01-08T14:31:09.684Z,99906.78
2023-01-08T14:33:36.001Z,99906.28
2023-01-08T14:36:02.346Z,99907.84
2023-01-08T14:38:29.169Z,99914.31
2023-01-08T14:40:55.528Z,99915.66
2023-01-08T14:43:22.059Z,99911.34
2023-01-08T14:45:48.841Z,99914.03
2023-01-08T14:48:15.411Z,99920.78
2023-01-08T14:50:41.845Z,99919.94
2023-01-08T14:53:08.381Z,99910.75
2023-01-08T14:55:35.220Z,99908.06
2023-01-08T14:58:01.756Z,99913.72
2023-01-08T15:00:28.389Z,99902.91
2023-01-08T15:02:54.858Z,99917.72
2023-01-08T15:05:21.850Z,99906.91
2023-01-08T15:07:49.008Z,99903.69
2023-01-08T15:10:15.601Z,99896.38
2023-01-08T15:12:42.088Z,99897.97
2023-01-08T15:15:09.048Z,99896.06
2023-01-08T15:17:35.567Z,99900.38
2023-01-08T15:20:02.022Z,99893.88
2023-01-08T15:22:28.447Z,99895.50
2023-01-08T15:24:55.474Z,99893.31
2023-01-08T15:27:21.945Z,99901.88
2023-01-08T15:29:48.372Z,99891.66
2023-01-08T15:32:15.349Z,99883.25
2023-01-08T15:34:41.747Z,99884.88
2023-01-08T15:37:08.508Z,99884.31
2023-01-08T15:39:35.019Z,99886.72
2023-01-08T15:42:01.590Z,99881.59
2023-01-08T15:44:28.035Z,99885.63
2023-01-08T15:46:54.616Z,99889.91
2023-01-08T15:49:21.078Z,99891.25
2023-01-08T15:51:47.712Z,99888.81
2023-01-08T15:54:14.601Z,99890.16
2023-01-08T15:56:41.206Z,99896.06
2023-01-08T15:59:07.835Z,99890.38
2023-01-08T16:01:34.310Z,99880.94
2023-01-08T16:04:00.839Z,99886.84
2023-01-08T16:06:27.248Z,99887.94
2023-01-08T16:08:53.701Z,99884.91
2023-01-08T16:11:20.219Z,99896.25
2023-01-08T16:13:46.673Z,99894.88
2023-01-08T16:16:13.525Z,99898.88
2023-01-08T16:18:40.051Z,99897.50
2023-01-08T16:21:06.605Z,99903.19
2023-01-08T16:23:33.128Z,99899.09
2023-01-08T16:25:59.610Z,99910.16
2023-01-08T16:28:25.964Z,99898.81
2023-01-08T16:30:52.350Z,99910.09
2023-01-08T16:33:18.723Z,99905.25
2023-01-08T16:35:45.717Z,99901.19
2023-01-08T16:38:12.147Z,99903.06
2023-01-08T16:40:38.879Z,99907.91
2023-01-08T16:43:05.300Z,99900.34
2023-01-08T16:45:31.721Z,99908.66
2023-01-08T16:47:58.103Z,99905.69
2023-01-08T16:50:24.477Z,99903.25
2023-01-08T16:52:51.574Z,99905.13
2023-01-08T16:55:18.222Z,99898.59
2023-01-08T16:57:44.607Z,99893.47
2023-01-08T17:00:11.395Z,99893.75
2023-01-08T17:02:38.174Z,99893.16
2023-01-08T17:05:04.677Z,99893.41
2023-01-08T17:07:31.588Z,99875.06
2023-01-08T17:09:58.006Z,99878.59
2023-01-08T17:12:24.523Z,99877.47
2023-01-08T17:14:51.626Z,99871.56
2023-01-08T17:17:18.200Z,99870.19
2023-01-08T17:19:44.644Z,99874.19
2023-01-08T17:22:10.993Z,99873.63
2023-01-08T17:24:38.093Z,99874.97
2023-01-08T17:27:04.805Z,99880.06
2023-01-08T17:29:31.195Z,99883.00
2023-01-08T17:31:57.787Z,99886.78
2023-01-08T17:34:24.432Z,99880.00
2023-01-08T17:36:50.845Z,99874.88
2023-01-08T17:39:17.505Z,99872.44
2023-01-08T17:41:44.181Z,99874.31
2023-01-08T17:44:10.861Z,99873.19
2023-01-08T17:46:37.284Z,99870.25
2023-01-08T17:49:04.168Z,99861.91
2023-01-08T17:51:31.086Z,99864.25
2023-01-08T17:53:57.528Z,99856.19
2023-01-08T17:56:24.192Z,99859.41
2023-01-08T17:58:51.035Z,99860.44
2023-01-08T18:01:17.611Z,99854.53
2023-01-08T18:03:44.195Z,99854.25
2023-01-08T18:06:10.956Z,99856.09
2023-01-08T18:08:37.697Z,99853.66
2023-01-08T18:11:04.180Z,99844.81
2023-01-08T18:13:30.918Z,99837.22
2023-01-08T18:15:58.209Z,99831.03
2023-01-08T18:18:24.926Z,99830.47
2023-01-08T18:20:53.872Z,99829.66
2023-01-08T18:23:20.693Z,99838.22
2023-01-08T18:25:47.445Z,99832.06
2023-01-08T18:28:13.818Z,99841.44
2023-01-08T18:30:40.508Z,99831.47
2023-01-08T18:33:07.333Z,99829.88
2023-01-08T18:35:33.684Z,99831.19
2023-01-08T18:38:00.125Z,99825.22
2023-01-08T18:40:26.860Z,99828.75
2023-01-08T18:42:53.407Z,99828.19
2023-01-08T18:45:19.899Z,99823.31
2023-01-08T18:47:46.594Z,99820.63
2023-01-08T18:50:13.086Z,99817.38
2023-01-08T18:52:40.093Z,99804.19
2023-01-08T18:55:07.058Z,99810.91
2023-01-08T18:57:33.754Z,99818.16
2023-01-08T19:00:00.355Z,99818.41
2023-01-08T19:02:26.959Z,99812.19
2023-01-08T19:04:53.579Z,99813.25
2023-01-08T19:07:20.315Z,99808.13
2023-01-08T19:09:47.209Z,99808.63
2023-01-08T19:12:13.909Z,99811.31
2023-01-08T19:14:40.942Z,99800.00
2023-01-08T19:17:07.350Z,99798.38
2023-01-08T19:19:34.827Z,99789.72
2023-01-08T19:22:01.250Z,99788.13
2023-01-08T19:24:27.610Z,99802.63
2023-01-08T19:26:54.249Z,99795.38
2023-01-08T19:29:20.630Z,99803.69
2023-01-08T19:31:47.524Z,99800.44
2023-01-08T19:34:14.104Z,99782.69
2023-01-08T19:36:43.625Z,99779.19
2023-01-08T19:39:10.346Z,99779.19
2023-01-08T19:41:36.683Z,99775.13
2023-01-08T19:44:03.950Z,99774.56
2023-01-08T19:46:30.550Z,99778.06
2023-01-08T19:48:57.098Z,99767.84
2023-01-08T19:51:23.870Z,99777.28
2023-01-08T19:53:50.434Z,99780.44
2023-01-08T19:56:17.322Z,99773.47
2023-01-08T19:58:43.775Z,99766.75
2023-01-08T20:01:10.420Z,99772.13
2023-01-08T20:03:37.263Z,99767.25
2023-01-08T20:06:03.718Z,99773.47
2023-01-08T20:08:30.110Z,99774.78
2023-01-08T20:10:57.103Z,99772.09
2023-01-08T20:13:23.486Z,99775.28
2023-01-08T20:15:50.548Z,99762.66
2023-01-08T20:18:17.267Z,99758.59
2023-01-08T20:20:44.216Z,99761.53
2023-01-08T20:23:10.640Z,99758.31
2023-01-08T20:25:37.095Z,99756.97
2023-01-08T20:28:03.921Z,99748.91
2023-01-08T20:30:30.313Z,99756.97
2023-01-08T20:32:57.206Z,99745.41
2023-01-08T20:35:24.111Z,99736.53
2023-01-08T20:37:50.980Z,99728.97
2023-01-08T20:40:17.446Z,99734.88
2023-01-08T20:42:44.045Z,99735.66
2023-01-08T20:45:10.419Z,99725.97
2023-01-08T20:47:37.022Z,99722.47
2023-01-08T20:50:12.332Z,99717.09
2023-01-08T20:52:45.975Z,99712.78
2023-01-08T20:55:12.473Z,99715.72
2023-01-08T20:57:39.639Z,99715.19
2023-01-08T21:00:06.107Z,99706.31
2023-01-08T21:02:32.858Z,99708.69
2023-01-08T21:04:59.593Z,99703.81
2023-01-08T21:07:26.028Z,99699.00
2023-01-08T21:09:52.974Z,99700.34
2023-01-08T21:12:19.404Z,99699.25
2023-01-08T21:14:45.998Z,99701.94
2023-01-08T21:17:12.478Z,99691.44
2023-01-08T21:19:38.989Z,99689.00
2023-01-08T21:22:05.533Z,99692.78
2023-01-08T21:24:32.066Z,99693.84
2023-01-08T21:26:58.569Z,99684.13
2023-01-08T21:29:25.052Z,99677.16
2023-01-08T21:31:51.493Z,99674.47
2023-01-08T21:34:18.419Z,99664.78
2023-01-08T21:36:45.262Z,99668.53
2023-01-08T21:39:12.168Z,99669.63
2023-01-08T21:41:38.647Z,99677.69
2023-01-08T21:44:05.103Z,99666.34
2023-01-08T21:46:31.807Z,99681.41
2023-01-08T21:48:58.259Z,99679.25
2023-01-08T21:51:25.393Z,99675.47
2023-01-08T21:53:51.829Z,99660.94
2023-01-08T21:56:18.473Z,99661.72
2023-01-08T21:58:44.876Z,99664.69
2023-01-08T22:01:11.384Z,99655.81
2023-01-08T22:03:38.211Z,99657.94
2023-01-08T22:06:04.634Z,99661.69
2023-01-08T22:08:31.314Z,99655.50
2023-01-08T22:10:57.991Z,99659.25
2023-01-08T22:13:25.277Z,99653.31
2023-01-08T22:15:52.378Z,99642.59
2023-01-08T22:18:20.189Z,99636.38
2023-01-08T22:20:46.817Z,99639.34
2023-01-08T22:23:13.666Z,99636.66
2023-01-08T22:25:40.076Z,99633.97
2023-01-08T22:28:07.215Z,99628.59
2023-01-08T22:30:34.187Z,99630.72
2023-01-08T22:33:00.564Z,99623.72
2023-01-08T22:35:27.650Z,99620.22
2023-01-08T22:37:54.644Z,99619.69
2023-01-08T22:40:21.883Z,99609.72
2023-01-08T22:42:48.395Z,99609.19
2023-01-08T22:45:15.148Z,99610.25
2023-01-08T22:47:41.564Z,99604.06
2023-01-08T22:50:08.296Z,99607.81
2023-01-08T22:52:35.165Z,99600.00
2023-01-08T22:55:01.681Z,99590.09
2023-01-08T22:57:28.559Z,99589.28
2023-01-08T22:59:55.018Z,99583.09
2023-01-08T23:02:21.800Z,99589.78
2023-01-08T23:04:48.293Z,99585.22
2023-01-08T23:07:14.814Z,99573.66
2023-01-08T23:09:41.435Z,99571.22
2023-01-08T23:12:07.863Z,99573.13
2023-01-08T23:14:34.755Z,99569.63
2023-01-08T23:17:01.356Z,99570.94
2023-01-08T23:19:28.342Z,99568.25
2023-01-08T23:21:55.250Z,99571.75
2023-01-08T23:24:21.623Z,99565.56
2023-01-08T23:26:48.304Z,99560.44
2023-01-08T23:29:14.911Z,99558.00
2023-01-08T23:31:41.366Z,99542.97
2023-01-08T23:34:08.837Z,99536.78
2023-01-08T23:36:35.325Z,99533.31
2023-01-08T23:39:01.795Z,99528.72
2023-01-08T23:41:28.287Z,99529.75
2023-01-08T23:43:54.866Z,99527.09
2023-01-08T23:46:21.579Z,99523.03
2023-01-08T23:48:48.232Z,99514.19
2023-01-08T23:51:14.604Z,99508.00
2023-01-08T23:53:41.274Z,99512.53
2023-01-08T23:56:07.628Z,99505.56
2023-01-08T23:58:34.075Z,99513.38
